Aviation Digital Data Service (ADDS)

Output produced by METARs form (1243 UTC 22 February 2018)
found at http://www.aviationweather.gov/adds/metars/
 
UMBB 221230Z 03004MPS 9999 OVC021 M05/M08 Q1025 R29/CLRD// NOSIG
TAF UMBB 221105Z 2212/2221 02005G10MPS 6000 BKN015 
     TEMPO 2212/2218 3000 -SN BR BKN007 
       
UMGG 221230Z 02004MPS 8000 -SHSN BKN007 OVC022CB M04/M04 Q1025 R10/820550 NOSIG
TAF UMGG 221100Z 2212/2312 VRB02MPS 4000 BR BKN013 
     TEMPO 2212/2215 1600 SHSN BKN005 BKN015CB 
     TEMPO 2215/2307 1200 SHSN BKN004 SCT015CB 
     TEMPO 2307/2312 12005MPS 2000 SHSN SCT005 SCT015CB
       
UMMG 221200Z 04004MPS 9999 BKN023 M05/M10 Q1027 R35/450565 NOSIG
TAF UMMG 221100Z 2212/2221 04006MPS 6000 BKN010 
     TEMPO 2212/2218 3000 -SN BR BKN007
       
UMBB 221230Z 03004MPS 9999 OVC021 M05/M08 Q1025 R29/CLRD// NOSIG
TAF UMBB 221105Z 2212/2221 02005G10MPS 6000 BKN015 
     TEMPO 2212/2218 3000 -SN BR BKN007 
       
UMGG 221230Z 02004MPS 8000 -SHSN BKN007 OVC022CB M04/M04 Q1025 R10/820550 NOSIG
TAF UMGG 221100Z 2212/2312 VRB02MPS 4000 BR BKN013 
     TEMPO 2212/2215 1600 SHSN BKN005 BKN015CB 
     TEMPO 2215/2307 1200 SHSN BKN004 SCT015CB 
     TEMPO 2307/2312 12005MPS 2000 SHSN SCT005 SCT015CB
       
UMII 221230Z 05004MPS CAVOK M10/M16 Q1027 R05/920337 NOSIG
TAF UMII 221105Z 2212/2221 05005MPS 6000 BKN010 
     TEMPO 2212/2221 2000 SN BKN005
       
UMKK 221230Z 05005MPS CAVOK M07/M10 Q1029 R24/19//60 NOSIG RMK QFE771/1028
TAF UMKK 221056Z 2212/2312 04003MPS 7000 SCT011 
     BECMG 2218/2220 VRB01MPS 
     TEMPO 2221/2306 3100 BR SCT005
       
UMMG 221200Z 04004MPS 9999 BKN023 M05/M10 Q1027 R35/450565 NOSIG
TAF UMMG 221100Z 2212/2221 04006MPS 6000 BKN010 
     TEMPO 2212/2218 3000 -SN BR BKN007
       
UMMM 221230Z 05003MPS CAVOK M06/M12 Q1025 R12/950527 NOSIG RMK QFE748
TAF UMMM 221107Z 2212/2221 03006MPS 8000 BKN010 
     TEMPO 2212/2221 3000 -SN BR SCT007
       
UMMS 221230Z 03004MPS 9999 BKN018 M06/M10 Q1025 R31/810547 NOSIG
TAF UMMS 221104Z 2212/2312 04006MPS 6000 -SN BKN007 
     TEMPO 2216/2307 1200 BR BKN003
       
UMOO 221200Z 05005MPS 8000 NSC M08/M11 Q1025 R13/750222 NOSIG
TAF UMOO 221100Z 2212/2221 05005MPS 8000 BKN015 
     TEMPO 2212/2218 3000 -SHSN BR BKN007 SCT020CB 
     TEMPO 2218/2221 1200 BR BKN004
       
UMMM 221230Z 05003MPS CAVOK M06/M12 Q1025 R12/950527 NOSIG RMK QFE748
TAF UMMM 221107Z 2212/2221 03006MPS 8000 BKN010 
     TEMPO 2212/2221 3000 -SN BR SCT007
       
UMMS 221230Z 03004MPS 9999 BKN018 M06/M10 Q1025 R31/810547 NOSIG
TAF UMMS 221104Z 2212/2312 04006MPS 6000 -SN BKN007 
     TEMPO 2216/2307 1200 BR BKN003
       
UMOO 221200Z 05005MPS 8000 NSC M08/M11 Q1025 R13/750222 NOSIG
TAF UMOO 221100Z 2212/2221 05005MPS 8000 BKN015 
     TEMPO 2212/2218 3000 -SHSN BR BKN007 SCT020CB 
     TEMPO 2218/2221 1200 BR BKN004